Saturday, November 18, 2017, 9:59 PM EST
Back to Local

KMPV, Knapp State Airport

Location: Barre, VT, United States Lat: 44.2
Local Time: 9:59 PM EST ( 2:59 GMT) Lon: -72.567
Time Zone: US/Eastern Elev: 1164 ft

Show me the last for .
Show Decoded

2017-11-18 21:00 METAR KMPV 190200Z AUTO 19006KT 8SM -RA BKN012 BKN021 OVC026 01/01 A2950 RMK AO2
                 P0002 T00110006 =
2017-11-18 20:51 METAR KMPV 190151Z AUTO 19007KT 7SM RA SCT014 OVC024 01/01 A2951 RMK AO2 RAB08
                 SLP007 P0004 T00110006 =
2017-11-18 19:51 METAR KMPV 190051Z AUTO 20003KT 10SM OVC021 02/M03 A2955 RMK AO2 SLP021
                 T00171033 =
2017-11-18 18:51 METAR KMPV 182351Z AUTO VRB04KT 10SM OVC028 02/M04 A2958 RMK AO2 SLP035 60000
                 T00171044 10017 21011 56021 =
2017-11-18 18:36 METAR KMPV 182336Z AUTO 19005KT 10SM OVC029 01/M05 A2959 RMK AO2 T00111050 =
2017-11-18 17:51 METAR KMPV 182251Z AUTO 20004KT 10SM OVC033 01/M06 A2960 RMK AO2 SLP042
                 T00111056 =
2017-11-18 16:51 METAR KMPV 182151Z AUTO 19003KT 10SM OVC040 01/M07 A2962 RMK AO2 SLP048
                 T00061067 =
2017-11-18 15:51 METAR KMPV 182051Z AUTO 19005KT 10SM FEW042 OVC070 01/M07 A2965 RMK AO2 SLP058
                 60000 T00061072 56028 =
2017-11-18 14:51 METAR KMPV 181951Z AUTO VRB05KT 10SM OVC090 00/M08 A2967 RMK AO2 SLP063
                 T00001083 =
2017-11-18 13:51 METAR KMPV 181851Z AUTO 19007KT 10SM SCT060 OVC085 00/M09 A2970 RMK AO2 UPB13E26
                 SLP075 P0000 T00001089 =
2017-11-18 12:51 METAR KMPV 181751Z AUTO 18007KT 10SM FEW070 OVC095 M01/M09 A2973 RMK AO2 SLP088
                 T10111094 11011 21083 58038 =
2017-11-18 11:51 METAR KMPV 181651Z AUTO 21004KT 10SM FEW120 M01/M10 A2977 RMK AO2 SLP100
                 T10111100 =
2017-11-18 10:51 METAR KMPV 181551Z AUTO 19003KT 10SM SCT120 M02/M09 A2982 RMK AO2 SLP115
                 T10171094 =
2017-11-18 09:51 METAR KMPV 181451Z AUTO 00000KT 10SM CLR M04/M07 A2985 RMK AO2 SLP127 T10391067
                 58027 =
2017-11-18 08:51 METAR KMPV 181351Z AUTO 12004KT 10SM CLR M06/M08 A2989 RMK AO2 SLP142 T10561078
                 =
2017-11-18 07:51 METAR KMPV 181251Z AUTO 08004KT 10SM CLR M07/M09 A2992 RMK AO2 SLP153 T10721089
                 =
2017-11-18 06:51 METAR KMPV 181151Z AUTO 14004KT 10SM FEW120 M08/M09 A2993 RMK AO2 SLP157 I6000
                 T10831089 11072 21100 57021 =
2017-11-18 05:51 METAR KMPV 181051Z AUTO 00000KT 10SM CLR M10/M11 A2995 RMK AO2 SLP165 I1000
                 T11001106 =
2017-11-18 04:51 METAR KMPV 180951Z AUTO 00000KT 10SM CLR M09/M10 A2997 RMK AO2 SLP171 T10941100
                 =
2017-11-18 03:51 METAR KMPV 180851Z AUTO 00000KT 10SM CLR M09/M10 A2999 RMK AO2 SLP178 T10941100
                 56003 =
2017-11-18 02:51 METAR KMPV 180751Z AUTO 00000KT 10SM CLR M08/M09 A3000 RMK AO2 SLP178 T10831094
                 =
2017-11-18 01:51 METAR KMPV 180651Z AUTO 00000KT 10SM CLR M08/M09 A2999 RMK AO2 SLP177 T10831094
                 =
2017-11-18 00:51 METAR KMPV 180551Z AUTO 00000KT 10SM CLR M09/M10 A3000 RMK AO2 SLP181 T10891100
                 11050 21094 58006 =
2017-11-17 23:51 METAR KMPV 180451Z AUTO 00000KT 10SM CLR M09/M10 A3001 RMK AO2 SLP185 T10891100
                 400111089 =
2017-11-17 22:51 METAR KMPV 180351Z AUTO 00000KT 10SM CLR M08/M09 A3002 RMK AO2 SLP185 T10781094
                 =

Support USWX by starting your Amazon purchase here.